createdAt,value
2019-01-21T00:01:34.112Z,62.2
2019-01-21T00:16:40.813Z,61.5
2019-01-21T00:31:53.642Z,61.6
2019-01-21T00:47:03.373Z,61.7
2019-01-21T01:02:13.021Z,61.8
2019-01-21T01:17:15.891Z,62
2019-01-21T01:32:32.214Z,61.8
2019-01-21T01:47:45.187Z,62.3
2019-01-21T02:02:51.406Z,62.7
2019-01-21T02:18:01.032Z,63.3
2019-01-21T02:33:10.511Z,62.5
2019-01-21T02:48:20.102Z,62.3
2019-01-21T03:03:30.000Z,62.3
2019-01-21T03:18:39.059Z,61.8
2019-01-21T03:33:48.539Z,61.2
2019-01-21T03:48:57.933Z,62
2019-01-21T04:04:07.355Z,61.6
2019-01-21T04:19:16.670Z,62.1
2019-01-21T04:34:23.165Z,64.3
2019-01-21T04:49:35.266Z,65.1
2019-01-21T05:04:44.437Z,67
2019-01-21T05:19:53.353Z,68
2019-01-21T05:34:57.068Z,68.5
2019-01-21T05:50:11.073Z,69.2
2019-01-21T06:05:20.051Z,69.9
2019-01-21T06:20:28.882Z,69.5
2019-01-21T06:35:37.927Z,70.8
2019-01-21T06:50:46.889Z,69
2019-01-21T07:05:55.976Z,71.7
2019-01-21T07:21:05.006Z,71.1
2019-01-21T07:36:14.155Z,71.3
2019-01-21T07:51:23.395Z,69.5
2019-01-21T08:06:32.745Z,67.3
2019-01-21T08:21:42.123Z,65.4
2019-01-21T08:36:51.558Z,61.9
2019-01-21T08:52:00.994Z,60.3
2019-01-21T09:07:10.630Z,59.8
2019-01-21T09:22:20.171Z,60.4
2019-01-21T09:37:29.972Z,60.9
2019-01-21T09:52:36.615Z,59.6
2019-01-21T10:07:50.134Z,59.5
2019-01-21T10:23:00.491Z,57.8
2019-01-21T10:38:11.453Z,54.4
2019-01-21T10:53:24.473Z,47.4
2019-01-21T11:08:36.365Z,43
2019-01-21T11:23:54.531Z,38.4
2019-01-21T11:39:09.602Z,40.4
2019-01-21T11:54:23.207Z,39.3
2019-01-21T12:09:36.483Z,39.2
2019-01-21T12:24:39.679Z,36.4
2019-01-21T12:40:04.988Z,33.4
2019-01-21T12:55:22.079Z,32.5
2019-01-21T13:10:39.074Z,32
2019-01-21T13:25:56.382Z,31.5
2019-01-21T13:41:14.249Z,29.4
2019-01-21T13:56:31.700Z,29.2
2019-01-21T14:11:37.066Z,30.9
2019-01-21T14:27:03.127Z,30.8
2019-01-21T14:42:21.208Z,31.7
2019-01-21T14:57:35.227Z,35.8
2019-01-21T15:12:48.769Z,36.9
2019-01-21T15:28:01.227Z,40.2
2019-01-21T15:43:09.353Z,43.3
2019-01-21T15:58:24.435Z,45.8
2019-01-21T16:13:35.536Z,48.9
2019-01-21T16:28:49.488Z,51.5
2019-01-21T16:43:57.857Z,52.8
2019-01-21T16:59:08.858Z,54.7
2019-01-21T17:14:18.797Z,57.2
2019-01-21T17:29:29.337Z,59.4
2019-01-21T17:44:39.883Z,59.5
2019-01-21T17:59:49.839Z,59.5
2019-01-21T18:15:00.791Z,59.8
2019-01-21T18:30:11.041Z,61.3
2019-01-21T18:45:21.216Z,62.5
2019-01-21T19:00:26.526Z,61.2
2019-01-21T19:15:41.585Z,61.9
2019-01-21T19:30:51.983Z,61.5
2019-01-21T19:46:02.220Z,62.9
2019-01-21T20:01:12.352Z,61.8
2019-01-21T20:16:22.403Z,61.9
2019-01-21T20:31:32.389Z,61.5
2019-01-21T20:46:42.284Z,62.2
2019-01-21T21:01:52.282Z,62
2019-01-21T21:17:02.161Z,61.9
2019-01-21T21:32:11.977Z,62.4
2019-01-21T21:47:21.795Z,65.3
2019-01-21T22:02:31.633Z,64.5
2019-01-21T22:17:37.317Z,64.3
2019-01-21T22:32:51.188Z,64.2
2019-01-21T22:48:00.799Z,63.9
2019-01-21T23:03:10.310Z,64.7
2019-01-21T23:18:20.045Z,65.3
2019-01-21T23:33:29.237Z,66
2019-01-21T23:48:38.765Z,64.3
